sensor_id;sensor_type;location;lat;lon;timestamp;pressure;altitude;pressure_sealevel;temperature;humidity
48053;BME280;33824;51.600;5.718;2023-04-20T00:00:28;102094.25;;;7.42;44.26
48053;BME280;33824;51.600;5.718;2023-04-20T00:03:14;102077.13;;;7.35;44.67
48053;BME280;33824;51.600;5.718;2023-04-20T00:05:39;102080.38;;;7.39;44.47
48053;BME280;33824;51.600;5.718;2023-04-20T00:08:05;102078.13;;;7.34;44.08
48053;BME280;33824;51.600;5.718;2023-04-20T00:10:30;102077.03;;;7.37;44.26
48053;BME280;33824;51.600;5.718;2023-04-20T00:12:56;102071.81;;;7.35;43.84
48053;BME280;33824;51.600;5.718;2023-04-20T00:15:21;102069.91;;;7.37;43.81
48053;BME280;33824;51.600;5.718;2023-04-20T00:17:47;102053.38;;;7.34;43.46
48053;BME280;33824;51.600;5.718;2023-04-20T00:20:12;102063.59;;;7.38;43.85
48053;BME280;33824;51.600;5.718;2023-04-20T00:22:39;102053.00;;;7.38;43.76
48053;BME280;33824;51.600;5.718;2023-04-20T00:25:05;102046.88;;;7.38;43.78
48053;BME280;33824;51.600;5.718;2023-04-20T00:27:31;102052.19;;;7.38;44.01
48053;BME280;33824;51.600;5.718;2023-04-20T00:29:56;102046.13;;;7.36;43.83
48053;BME280;33824;51.600;5.718;2023-04-20T00:32:22;102033.72;;;7.36;44.14
48053;BME280;33824;51.600;5.718;2023-04-20T00:34:48;102031.44;;;7.32;44.11
48053;BME280;33824;51.600;5.718;2023-04-20T00:37:13;102031.31;;;7.33;44.06
48053;BME280;33824;51.600;5.718;2023-04-20T00:39:39;102023.63;;;7.30;44.24
48053;BME280;33824;51.600;5.718;2023-04-20T00:42:06;102020.38;;;7.27;44.44
48053;BME280;33824;51.600;5.718;2023-04-20T00:44:32;102022.03;;;7.28;44.40
48053;BME280;33824;51.600;5.718;2023-04-20T00:46:59;102013.63;;;7.22;44.56
48053;BME280;33824;51.600;5.718;2023-04-20T00:49:29;102010.50;;;7.17;44.07
48053;BME280;33824;51.600;5.718;2023-04-20T00:51:58;102013.41;;;7.14;44.50
48053;BME280;33824;51.600;5.718;2023-04-20T00:54:25;102012.06;;;7.09;45.27
48053;BME280;33824;51.600;5.718;2023-04-20T00:56:51;102011.56;;;7.04;45.37
48053;BME280;33824;51.600;5.718;2023-04-20T00:59:17;102000.25;;;7.02;46.19
48053;BME280;33824;51.600;5.718;2023-04-20T01:01:43;101991.72;;;6.98;45.81
48053;BME280;33824;51.600;5.718;2023-04-20T01:04:08;101993.63;;;6.96;46.06
48053;BME280;33824;51.600;5.718;2023-04-20T01:06:34;101986.91;;;6.92;46.52
48053;BME280;33824;51.600;5.718;2023-04-20T01:08:59;101980.16;;;6.88;46.93
48053;BME280;33824;51.600;5.718;2023-04-20T01:11:26;101968.34;;;6.92;46.43
48053;BME280;33824;51.600;5.718;2023-04-20T01:13:51;101978.34;;;6.89;47.38
48053;BME280;33824;51.600;5.718;2023-04-20T01:16:17;101974.13;;;6.86;46.68
48053;BME280;33824;51.600;5.718;2023-04-20T01:18:46;101969.31;;;6.80;47.30
48053;BME280;33824;51.600;5.718;2023-04-20T01:21:13;101969.31;;;6.80;47.14
48053;BME280;33824;51.600;5.718;2023-04-20T01:23:39;101958.72;;;6.80;47.49
48053;BME280;33824;51.600;5.718;2023-04-20T01:26:10;101952.22;;;6.73;47.65
48053;BME280;33824;51.600;5.718;2023-04-20T01:28:36;101957.53;;;6.73;47.26
48053;BME280;33824;51.600;5.718;2023-04-20T01:31:03;101945.50;;;6.69;47.82
48053;BME280;33824;51.600;5.718;2023-04-20T01:33:29;101932.44;;;6.66;47.72
48053;BME280;33824;51.600;5.718;2023-04-20T01:35:58;101938.75;;;6.65;47.64
48053;BME280;33824;51.600;5.718;2023-04-20T01:38:24;101931.75;;;6.64;48.18
48053;BME280;33824;51.600;5.718;2023-04-20T01:40:53;101926.56;;;6.62;47.79
48053;BME280;33824;51.600;5.718;2023-04-20T01:43:19;101917.16;;;6.58;48.10
48053;BME280;33824;51.600;5.718;2023-04-20T01:45:45;101913.09;;;6.54;48.27
48053;BME280;33824;51.600;5.718;2023-04-20T01:48:10;101914.91;;;6.54;48.69
48053;BME280;33824;51.600;5.718;2023-04-20T01:50:36;101905.38;;;6.51;48.35
48053;BME280;33824;51.600;5.718;2023-04-20T01:53:02;101894.41;;;6.56;48.47
48053;BME280;33824;51.600;5.718;2023-04-20T01:55:27;101902.50;;;6.54;48.91
48053;BME280;33824;51.600;5.718;2023-04-20T01:57:53;101899.22;;;6.51;49.06
48053;BME280;33824;51.600;5.718;2023-04-20T02:00:18;101900.91;;;6.52;48.62
48053;BME280;33824;51.600;5.718;2023-04-20T02:02:44;101900.31;;;6.48;49.19
48053;BME280;33824;51.600;5.718;2023-04-20T02:05:09;101902.03;;;6.49;48.98
48053;BME280;33824;51.600;5.718;2023-04-20T02:07:35;101891.66;;;6.46;49.36
48053;BME280;33824;51.600;5.718;2023-04-20T02:10:01;101901.66;;;6.43;49.56
48053;BME280;33824;51.600;5.718;2023-04-20T02:12:27;101893.59;;;6.44;49.62
48053;BME280;33824;51.600;5.718;2023-04-20T02:14:52;101889.13;;;6.45;49.67
48053;BME280;33824;51.600;5.718;2023-04-20T02:17:18;101890.34;;;6.41;49.80
48053;BME280;33824;51.600;5.718;2023-04-20T02:19:44;101897.09;;;6.34;50.89
48053;BME280;33824;51.600;5.718;2023-04-20T02:22:09;101893.59;;;6.33;50.59
48053;BME280;33824;51.600;5.718;2023-04-20T02:24:35;101884.94;;;6.31;50.83
48053;BME280;33824;51.600;5.718;2023-04-20T02:27:00;101885.03;;;6.30;50.88
48053;BME280;33824;51.600;5.718;2023-04-20T02:29:26;101880.94;;;6.25;51.62
48053;BME280;33824;51.600;5.718;2023-04-20T02:31:52;101879.16;;;6.26;51.59
48053;BME280;33824;51.600;5.718;2023-04-20T02:34:18;101875.06;;;6.22;52.53
48053;BME280;33824;51.600;5.718;2023-04-20T02:36:43;101872.66;;;6.19;52.23
48053;BME280;33824;51.600;5.718;2023-04-20T02:39:09;101863.13;;;6.16;52.92
48053;BME280;33824;51.600;5.718;2023-04-20T02:41:35;101858.69;;;6.17;53.00
48053;BME280;33824;51.600;5.718;2023-04-20T02:44:00;101857.47;;;6.21;52.97
48053;BME280;33824;51.600;5.718;2023-04-20T02:46:26;101861.31;;;6.17;53.50
48053;BME280;33824;51.600;5.718;2023-04-20T02:48:51;101852.69;;;6.15;53.90
48053;BME280;33824;51.600;5.718;2023-04-20T02:51:17;101858.47;;;6.20;53.88
48053;BME280;33824;51.600;5.718;2023-04-20T02:53:42;101846.88;;;6.21;53.93
48053;BME280;33824;51.600;5.718;2023-04-20T02:56:08;101839.78;;;6.21;54.09
48053;BME280;33824;51.600;5.718;2023-04-20T02:58:34;101840.53;;;6.23;54.62
48053;BME280;33824;51.600;5.718;2023-04-20T03:01:00;101845.69;;;6.25;54.14
48053;BME280;33824;51.600;5.718;2023-04-20T03:03:29;101836.28;;;6.21;54.73
48053;BME280;33824;51.600;5.718;2023-04-20T03:05:55;101834.63;;;6.31;54.78
48053;BME280;33824;51.600;5.718;2023-04-20T03:08:21;101835.81;;;6.38;54.64
48053;BME280;33824;51.600;5.718;2023-04-20T03:10:47;101828.94;;;6.47;54.49
48053;BME280;33824;51.600;5.718;2023-04-20T03:13:12;101825.78;;;6.53;54.61
48053;BME280;33824;51.600;5.718;2023-04-20T03:15:38;101828.31;;;6.54;56.00
48053;BME280;33824;51.600;5.718;2023-04-20T03:18:03;101821.41;;;6.63;55.60
48053;BME280;33824;51.600;5.718;2023-04-20T03:20:29;101818.28;;;6.69;55.94
48053;BME280;33824;51.600;5.718;2023-04-20T03:22:55;101827.13;;;6.79;55.75
48053;BME280;33824;51.600;5.718;2023-04-20T03:25:21;101825.94;;;6.83;56.55
48053;BME280;33824;51.600;5.718;2023-04-20T03:27:47;101822.66;;;6.91;58.02
48053;BME280;33824;51.600;5.718;2023-04-20T03:30:13;101810.03;;;7.04;58.13
48053;BME280;33824;51.600;5.718;2023-04-20T03:32:39;101806.63;;;7.13;58.58
48053;BME280;33824;51.600;5.718;2023-04-20T03:35:05;101804.66;;;7.26;58.42
48053;BME280;33824;51.600;5.718;2023-04-20T03:37:31;101794.94;;;7.36;58.26
48053;BME280;33824;51.600;5.718;2023-04-20T03:39:56;101797.38;;;7.49;58.26
48053;BME280;33824;51.600;5.718;2023-04-20T03:42:22;101801.03;;;7.57;57.98
48053;BME280;33824;51.600;5.718;2023-04-20T03:44:47;101792.84;;;7.60;58.57
48053;BME280;33824;51.600;5.718;2023-04-20T03:47:13;101794.56;;;7.71;58.14
48053;BME280;33824;51.600;5.718;2023-04-20T03:49:39;101789.09;;;7.72;57.88
48053;BME280;33824;51.600;5.718;2023-04-20T03:52:04;101789.00;;;7.74;58.59
48053;BME280;33824;51.600;5.718;2023-04-20T03:54:30;101788.78;;;7.87;58.00
48053;BME280;33824;51.600;5.718;2023-04-20T03:56:55;101783.72;;;7.84;58.34
48053;BME280;33824;51.600;5.718;2023-04-20T03:59:22;101787.94;;;7.86;59.31
48053;BME280;33824;51.600;5.718;2023-04-20T04:01:48;101777.31;;;7.86;59.33
48053;BME280;33824;51.600;5.718;2023-04-20T04:04:14;101768.63;;;7.84;59.82
48053;BME280;33824;51.600;5.718;2023-04-20T04:06:40;101778.28;;;7.85;60.14
48053;BME280;33824;51.600;5.718;2023-04-20T04:09:05;101777.16;;;7.88;60.25
48053;BME280;33824;51.600;5.718;2023-04-20T04:11:31;101769.06;;;7.89;60.46
48053;BME280;33824;51.600;5.718;2023-04-20T04:13:57;101756.75;;;7.88;60.75
48053;BME280;33824;51.600;5.718;2023-04-20T04:16:23;101752.44;;;7.87;61.40
48053;BME280;33824;51.600;5.718;2023-04-20T04:18:48;101757.31;;;7.82;61.41
48053;BME280;33824;51.600;5.718;2023-04-20T04:21:14;101750.75;;;7.86;61.32
48053;BME280;33824;51.600;5.718;2023-04-20T04:23:39;101753.25;;;7.88;61.34
48053;BME280;33824;51.600;5.718;2023-04-20T04:26:07;101744.19;;;7.90;61.67
48053;BME280;33824;51.600;5.718;2023-04-20T04:28:33;101717.34;;;7.84;61.71
48053;BME280;33824;51.600;5.718;2023-04-20T04:30:59;101739.84;;;7.89;61.83
48053;BME280;33824;51.600;5.718;2023-04-20T04:33:26;101728.78;;;7.84;62.14
48053;BME280;33824;51.600;5.718;2023-04-20T04:35:52;101729.34;;;7.88;61.95
48053;BME280;33824;51.600;5.718;2023-04-20T04:38:17;101737.19;;;7.89;61.76
48053;BME280;33824;51.600;5.718;2023-04-20T04:40:43;101736.66;;;7.95;62.10
48053;BME280;33824;51.600;5.718;2023-04-20T04:43:10;101721.28;;;7.89;62.10
48053;BME280;33824;51.600;5.718;2023-04-20T04:45:39;101721.66;;;7.85;62.23
48053;BME280;33824;51.600;5.718;2023-04-20T04:48:05;101725.63;;;7.90;62.13
48053;BME280;33824;51.600;5.718;2023-04-20T04:50:31;101728.00;;;7.93;62.19
48053;BME280;33824;51.600;5.718;2023-04-20T04:52:56;101716.13;;;7.97;62.36
48053;BME280;33824;51.600;5.718;2023-04-20T04:55:22;101724.09;;;7.97;62.06
48053;BME280;33824;51.600;5.718;2023-04-20T04:57:47;101726.31;;;7.92;62.49
48053;BME280;33824;51.600;5.718;2023-04-20T05:00:13;101733.88;;;7.97;62.83
48053;BME280;33824;51.600;5.718;2023-04-20T05:02:39;101722.28;;;7.98;62.51
48053;BME280;33824;51.600;5.718;2023-04-20T05:05:08;101715.84;;;8.00;62.20
48053;BME280;33824;51.600;5.718;2023-04-20T05:07:34;101720.59;;;7.97;62.49
48053;BME280;33824;51.600;5.718;2023-04-20T05:09:59;101727.59;;;7.98;63.34
48053;BME280;33824;51.600;5.718;2023-04-20T05:12:25;101727.31;;;8.01;63.03
48053;BME280;33824;51.600;5.718;2023-04-20T05:14:51;101711.50;;;7.99;62.67
48053;BME280;33824;51.600;5.718;2023-04-20T05:17:17;101715.44;;;8.05;63.14
48053;BME280;33824;51.600;5.718;2023-04-20T05:19:43;101709.41;;;8.03;62.89
48053;BME280;33824;51.600;5.718;2023-04-20T05:22:08;101723.28;;;8.06;63.23
48053;BME280;33824;51.600;5.718;2023-04-20T05:24:34;101717.38;;;8.03;63.03
48053;BME280;33824;51.600;5.718;2023-04-20T05:26:59;101722.84;;;8.11;62.80
48053;BME280;33824;51.600;5.718;2023-04-20T05:29:26;101714.47;;;8.06;62.41
48053;BME280;33824;51.600;5.718;2023-04-20T05:31:51;101719.63;;;8.07;62.69
48053;BME280;33824;51.600;5.718;2023-04-20T05:34:17;101707.75;;;8.11;62.50
48053;BME280;33824;51.600;5.718;2023-04-20T05:36:42;101710.41;;;8.11;62.70
48053;BME280;33824;51.600;5.718;2023-04-20T05:39:08;101707.75;;;8.11;62.94
48053;BME280;33824;51.600;5.718;2023-04-20T05:41:34;101710.69;;;8.18;62.69
48053;BME280;33824;51.600;5.718;2023-04-20T05:44:00;101706.38;;;8.27;63.29
48053;BME280;33824;51.600;5.718;2023-04-20T05:46:25;101713.13;;;8.31;63.42
48053;BME280;33824;51.600;5.718;2023-04-20T05:48:51;101713.84;;;8.33;62.99
48053;BME280;33824;51.600;5.718;2023-04-20T05:51:17;101705.03;;;8.42;63.27
48053;BME280;33824;51.600;5.718;2023-04-20T05:53:42;101708.69;;;8.50;63.02
48053;BME280;33824;51.600;5.718;2023-04-20T05:56:08;101700.28;;;8.45;62.97
48053;BME280;33824;51.600;5.718;2023-04-20T05:58:34;101716.94;;;8.57;63.05
48053;BME280;33824;51.600;5.718;2023-04-20T06:01:02;101704.63;;;8.65;63.46
48053;BME280;33824;51.600;5.718;2023-04-20T06:03:28;101713.16;;;8.79;62.83
48053;BME280;33824;51.600;5.718;2023-04-20T06:05:54;101702.38;;;8.80;62.96
48053;BME280;33824;51.600;5.718;2023-04-20T06:08:20;101711.75;;;8.75;63.04
48053;BME280;33824;51.600;5.718;2023-04-20T06:10:45;101704.59;;;8.75;63.24
48053;BME280;33824;51.600;5.718;2023-04-20T06:13:11;101713.41;;;8.76;63.19
48053;BME280;33824;51.600;5.718;2023-04-20T06:15:36;101710.63;;;8.67;64.25
48053;BME280;33824;51.600;5.718;2023-04-20T06:18:02;101715.09;;;8.77;63.66
48053;BME280;33824;51.600;5.718;2023-04-20T06:20:27;101716.66;;;8.70;63.93
48053;BME280;33824;51.600;5.718;2023-04-20T06:22:53;101720.28;;;8.68;64.13
48053;BME280;33824;51.600;5.718;2023-04-20T06:25:19;101702.38;;;8.71;64.28
48053;BME280;33824;51.600;5.718;2023-04-20T06:27:45;101701.81;;;8.57;64.55
48053;BME280;33824;51.600;5.718;2023-04-20T06:30:11;101696.34;;;8.49;64.54
48053;BME280;33824;51.600;5.718;2023-04-20T06:32:37;101695.38;;;8.60;64.10
48053;BME280;33824;51.600;5.718;2023-04-20T06:35:02;101696.63;;;8.85;64.11
48053;BME280;33824;51.600;5.718;2023-04-20T06:37:28;101692.28;;;8.93;63.91
48053;BME280;33824;51.600;5.718;2023-04-20T06:39:54;101689.91;;;8.81;64.16
48053;BME280;33824;51.600;5.718;2023-04-20T06:42:20;101700.28;;;8.74;64.63
48053;BME280;33824;51.600;5.718;2023-04-20T06:44:46;101692.59;;;8.52;65.15
48053;BME280;33824;51.600;5.718;2023-04-20T06:47:11;101696.78;;;8.45;64.95
48053;BME280;33824;51.600;5.718;2023-04-20T06:49:37;101699.16;;;8.38;65.37
48053;BME280;33824;51.600;5.718;2023-04-20T06:52:06;101709.66;;;8.49;65.73
48053;BME280;33824;51.600;5.718;2023-04-20T06:54:31;101696.06;;;8.52;65.75
48053;BME280;33824;51.600;5.718;2023-04-20T06:56:57;101705.47;;;8.47;65.72
48053;BME280;33824;51.600;5.718;2023-04-20T06:59:23;101695.09;;;8.34;65.98
48053;BME280;33824;51.600;5.718;2023-04-20T07:01:48;101695.38;;;8.31;66.60
48053;BME280;33824;51.600;5.718;2023-04-20T07:04:14;101695.81;;;8.36;66.65
48053;BME280;33824;51.600;5.718;2023-04-20T07:06:40;101700.00;;;8.29;67.08
48053;BME280;33824;51.600;5.718;2023-04-20T07:09:05;101690.06;;;8.31;67.41
48053;BME280;33824;51.600;5.718;2023-04-20T07:11:32;101682.31;;;8.18;67.50
48053;BME280;33824;51.600;5.718;2023-04-20T07:13:58;101683.16;;;8.19;67.12
48053;BME280;33824;51.600;5.718;2023-04-20T07:16:24;101704.31;;;8.30;67.56
48053;BME280;33824;51.600;5.718;2023-04-20T07:18:49;101702.38;;;8.32;68.07
48053;BME280;33824;51.600;5.718;2023-04-20T07:21:15;101692.88;;;8.39;67.70
48053;BME280;33824;51.600;5.718;2023-04-20T07:23:40;101681.53;;;8.47;67.56
48053;BME280;33824;51.600;5.718;2023-04-20T07:26:07;101693.69;;;8.49;67.14
48053;BME280;33824;51.600;5.718;2023-04-20T07:28:32;101688.66;;;8.75;67.40
48053;BME280;33824;51.600;5.718;2023-04-20T07:30:58;101662.19;;;8.83;66.16
48053;BME280;33824;51.600;5.718;2023-04-20T07:33:24;101688.50;;;8.96;66.39
48053;BME280;33824;51.600;5.718;2023-04-20T07:35:50;101675.44;;;9.02;66.25
48053;BME280;33824;51.600;5.718;2023-04-20T07:38:17;101689.34;;;8.87;66.92
48053;BME280;33824;51.600;5.718;2023-04-20T07:40:43;101678.22;;;9.20;65.96
48053;BME280;33824;51.600;5.718;2023-04-20T07:43:08;101690.25;;;9.14;66.09
48053;BME280;33824;51.600;5.718;2023-04-20T07:45:34;101679.44;;;9.26;65.93
48053;BME280;33824;51.600;5.718;2023-04-20T07:47:59;101688.25;;;9.36;65.11
48053;BME280;33824;51.600;5.718;2023-04-20T07:50:26;101701.16;;;9.31;65.44
48053;BME280;33824;51.600;5.718;2023-04-20T07:52:52;101696.38;;;9.34;65.98
48053;BME280;33824;51.600;5.718;2023-04-20T07:55:18;101697.06;;;9.36;65.74
48053;BME280;33824;51.600;5.718;2023-04-20T07:57:43;101691.06;;;9.34;65.82
48053;BME280;33824;51.600;5.718;2023-04-20T08:00:09;101685.59;;;9.26;65.79
48053;BME280;33824;51.600;5.718;2023-04-20T08:02:36;101691.34;;;9.31;65.62
48053;BME280;33824;51.600;5.718;2023-04-20T08:05:02;101689.97;;;9.27;65.62
48053;BME280;33824;51.600;5.718;2023-04-20T08:07:28;101687.41;;;9.35;65.47
48053;BME280;33824;51.600;5.718;2023-04-20T08:09:54;101691.94;;;9.52;65.37
48053;BME280;33824;51.600;5.718;2023-04-20T08:12:19;101687.16;;;9.56;65.06
48053;BME280;33824;51.600;5.718;2023-04-20T08:14:45;101681.06;;;9.46;64.88
48053;BME280;33824;51.600;5.718;2023-04-20T08:17:10;101681.16;;;9.54;65.44
48053;BME280;33824;51.600;5.718;2023-04-20T08:19:36;101679.06;;;9.57;64.73
48053;BME280;33824;51.600;5.718;2023-04-20T08:22:01;101676.59;;;9.74;64.81
48053;BME280;33824;51.600;5.718;2023-04-20T08:24:27;101666.00;;;9.82;64.09
48053;BME280;33824;51.600;5.718;2023-04-20T08:26:52;101669.78;;;9.89;64.01
48053;BME280;33824;51.600;5.718;2023-04-20T08:29:18;101664.03;;;10.11;64.29
48053;BME280;33824;51.600;5.718;2023-04-20T08:31:43;101660.13;;;10.05;63.44
48053;BME280;33824;51.600;5.718;2023-04-20T08:34:10;101664.28;;;9.90;62.81
48053;BME280;33824;51.600;5.718;2023-04-20T08:36:36;101653.44;;;9.74;63.88
48053;BME280;33824;51.600;5.718;2023-04-20T08:39:10;101654.91;;;9.59;64.04
48053;BME280;33824;51.600;5.718;2023-04-20T08:41:36;101658.63;;;9.76;64.54
48053;BME280;33824;51.600;5.718;2023-04-20T08:44:02;101661.47;;;9.92;64.75
48053;BME280;33824;51.600;5.718;2023-04-20T08:46:28;101659.88;;;9.99;63.84
48053;BME280;33824;51.600;5.718;2023-04-20T08:48:54;101657.44;;;10.05;64.31
48053;BME280;33824;51.600;5.718;2023-04-20T08:51:20;101658.06;;;9.99;63.98
48053;BME280;33824;51.600;5.718;2023-04-20T08:53:46;101649.28;;;10.17;63.69
48053;BME280;33824;51.600;5.718;2023-04-20T08:56:12;101652.91;;;10.51;63.47
48053;BME280;33824;51.600;5.718;2023-04-20T08:58:38;101642.91;;;10.71;62.63
48053;BME280;33824;51.600;5.718;2023-04-20T09:01:10;101638.84;;;10.84;63.12
48053;BME280;33824;51.600;5.718;2023-04-20T09:03:40;101650.53;;;10.66;62.47
48053;BME280;33824;51.600;5.718;2023-04-20T09:06:15;101649.47;;;10.58;62.71
48053;BME280;33824;51.600;5.718;2023-04-20T09:08:41;101616.69;;;10.40;62.57
48053;BME280;33824;51.600;5.718;2023-04-20T09:11:23;101653.94;;;10.05;62.55
48053;BME280;33824;51.600;5.718;2023-04-20T09:13:59;101648.88;;;10.11;64.09
48053;BME280;33824;51.600;5.718;2023-04-20T09:16:26;101641.69;;;10.12;63.58
48053;BME280;33824;51.600;5.718;2023-04-20T09:18:52;101642.00;;;10.09;63.35
48053;BME280;33824;51.600;5.718;2023-04-20T09:21:19;101648.63;;;10.05;63.11
48053;BME280;33824;51.600;5.718;2023-04-20T09:24:05;101628.13;;;9.88;63.97
48053;BME280;33824;51.600;5.718;2023-04-20T09:26:34;101652.50;;;9.93;63.02
48053;BME280;33824;51.600;5.718;2023-04-20T09:29:01;101641.38;;;9.97;63.58
48053;BME280;33824;51.600;5.718;2023-04-20T09:31:27;101643.59;;;10.02;63.45
48053;BME280;33824;51.600;5.718;2023-04-20T09:34:00;101642.09;;;9.99;62.55
48053;BME280;33824;51.600;5.718;2023-04-20T09:36:39;101649.00;;;9.92;64.54
48053;BME280;33824;51.600;5.718;2023-04-20T09:39:08;101647.09;;;10.02;63.86
48053;BME280;33824;51.600;5.718;2023-04-20T09:41:35;101629.22;;;10.12;63.76
48053;BME280;33824;51.600;5.718;2023-04-20T09:44:01;101629.28;;;10.03;64.00
48053;BME280;33824;51.600;5.718;2023-04-20T09:46:29;101623.63;;;10.16;64.24
48053;BME280;33824;51.600;5.718;2023-04-20T09:48:58;101633.81;;;10.20;63.55
48053;BME280;33824;51.600;5.718;2023-04-20T09:51:27;101633.78;;;10.02;63.98
48053;BME280;33824;51.600;5.718;2023-04-20T09:53:54;101623.88;;;9.95;63.88
48053;BME280;33824;51.600;5.718;2023-04-20T09:56:20;101629.34;;;9.93;64.28
48053;BME280;33824;51.600;5.718;2023-04-20T09:58:46;101624.72;;;9.78;65.44
48053;BME280;33824;51.600;5.718;2023-04-20T10:01:12;101626.88;;;9.64;65.68
48053;BME280;33824;51.600;5.718;2023-04-20T10:03:40;101624.78;;;9.86;65.91
48053;BME280;33824;51.600;5.718;2023-04-20T10:06:31;101618.56;;;9.95;65.92
48053;BME280;33824;51.600;5.718;2023-04-20T10:09:04;101615.66;;;10.06;64.83
48053;BME280;33824;51.600;5.718;2023-04-20T10:11:35;101616.72;;;9.78;64.79
48053;BME280;33824;51.600;5.718;2023-04-20T10:14:14;101608.19;;;10.09;65.98
48053;BME280;33824;51.600;5.718;2023-04-20T10:16:42;101608.53;;;10.24;64.87
48053;BME280;33824;51.600;5.718;2023-04-20T10:19:08;101607.66;;;10.16;64.73
48053;BME280;33824;51.600;5.718;2023-04-20T10:21:46;101610.34;;;10.06;64.22
48053;BME280;33824;51.600;5.718;2023-04-20T10:24:12;101612.56;;;10.10;63.53
48053;BME280;33824;51.600;5.718;2023-04-20T10:26:42;101605.75;;;9.81;64.68
48053;BME280;33824;51.600;5.718;2023-04-20T10:29:10;101607.41;;;9.64;65.72
48053;BME280;33824;51.600;5.718;2023-04-20T10:31:38;101606.41;;;9.65;66.06
48053;BME280;33824;51.600;5.718;2023-04-20T10:34:05;101596.56;;;9.48;66.90
48053;BME280;33824;51.600;5.718;2023-04-20T10:36:34;101590.22;;;9.76;66.43
48053;BME280;33824;51.600;5.718;2023-04-20T10:39:15;101599.28;;;10.01;65.64
48053;BME280;33824;51.600;5.718;2023-04-20T10:41:54;101591.41;;;10.27;65.52
48053;BME280;33824;51.600;5.718;2023-04-20T10:44:23;101582.16;;;10.39;65.31
48053;BME280;33824;51.600;5.718;2023-04-20T10:46:53;101586.81;;;10.37;64.82
48053;BME280;33824;51.600;5.718;2023-04-20T10:49:24;101589.50;;;10.37;64.21
48053;BME280;33824;51.600;5.718;2023-04-20T10:51:51;101575.94;;;10.30;64.72
48053;BME280;33824;51.600;5.718;2023-04-20T10:54:18;101572.97;;;10.33;64.52
48053;BME280;33824;51.600;5.718;2023-04-20T10:59:18;101581.03;;;10.24;63.59
48053;BME280;33824;51.600;5.718;2023-04-20T11:01:44;101578.75;;;10.11;64.09
48053;BME280;33824;51.600;5.718;2023-04-20T11:04:11;101571.53;;;10.03;64.90
48053;BME280;33824;51.600;5.718;2023-04-20T11:06:38;101569.16;;;10.00;64.76
48053;BME280;33824;51.600;5.718;2023-04-20T11:09:20;101566.56;;;9.73;64.33
48053;BME280;33824;51.600;5.718;2023-04-20T11:11:57;101580.88;;;9.90;65.80
48053;BME280;33824;51.600;5.718;2023-04-20T11:14:23;101572.13;;;9.97;65.07
48053;BME280;33824;51.600;5.718;2023-04-20T11:16:52;101573.88;;;9.89;65.31
48053;BME280;33824;51.600;5.718;2023-04-20T11:19:36;101562.91;;;9.92;64.93
48053;BME280;33824;51.600;5.718;2023-04-20T11:22:02;101566.91;;;10.23;64.54
48053;BME280;33824;51.600;5.718;2023-04-20T11:24:30;101563.47;;;10.31;64.07
48053;BME280;33824;51.600;5.718;2023-04-20T11:26:56;101555.41;;;10.48;64.46
48053;BME280;33824;51.600;5.718;2023-04-20T11:31:52;101544.16;;;10.63;63.97
48053;BME280;33824;51.600;5.718;2023-04-20T11:34:17;101545.16;;;10.62;63.58
48053;BME280;33824;51.600;5.718;2023-04-20T11:36:43;101550.34;;;10.37;63.06
48053;BME280;33824;51.600;5.718;2023-04-20T11:39:12;101545.19;;;10.00;65.92
48053;BME280;33824;51.600;5.718;2023-04-20T11:41:38;101542.44;;;9.75;67.36
48053;BME280;33824;51.600;5.718;2023-04-20T11:44:04;101553.38;;;9.54;68.47
48053;BME280;33824;51.600;5.718;2023-04-20T11:46:33;101559.34;;;9.38;70.07
48053;BME280;33824;51.600;5.718;2023-04-20T11:48:59;101566.72;;;9.44;69.68
48053;BME280;33824;51.600;5.718;2023-04-20T11:51:26;101567.00;;;9.24;70.74
48053;BME280;33824;51.600;5.718;2023-04-20T11:53:53;101567.94;;;9.05;72.18
48053;BME280;33824;51.600;5.718;2023-04-20T11:56:18;101564.63;;;8.93;73.59
48053;BME280;33824;51.600;5.718;2023-04-20T11:58:44;101565.41;;;9.03;74.60
48053;BME280;33824;51.600;5.718;2023-04-20T12:01:09;101559.03;;;9.24;75.43
48053;BME280;33824;51.600;5.718;2023-04-20T12:03:35;101561.91;;;9.30;75.49
48053;BME280;33824;51.600;5.718;2023-04-20T12:06:01;101563.09;;;9.45;76.72
48053;BME280;33824;51.600;5.718;2023-04-20T12:08:27;101548.72;;;9.56;76.47
48053;BME280;33824;51.600;5.718;2023-04-20T12:10:52;101539.31;;;9.61;76.14
48053;BME280;33824;51.600;5.718;2023-04-20T12:13:18;101534.53;;;10.00;76.56
48053;BME280;33824;51.600;5.718;2023-04-20T12:15:44;101530.41;;;10.24;75.86
48053;BME280;33824;51.600;5.718;2023-04-20T12:18:09;101525.25;;;10.48;75.12
48053;BME280;33824;51.600;5.718;2023-04-20T12:20:35;101524.59;;;10.46;74.80
48053;BME280;33824;51.600;5.718;2023-04-20T12:23:03;101519.03;;;10.65;72.06
48053;BME280;33824;51.600;5.718;2023-04-20T12:25:29;101507.31;;;10.84;70.16
48053;BME280;33824;51.600;5.718;2023-04-20T12:27:54;101503.94;;;10.82;70.25
48053;BME280;33824;51.600;5.718;2023-04-20T12:30:20;101504.53;;;11.01;70.78
48053;BME280;33824;51.600;5.718;2023-04-20T12:32:45;101501.94;;;11.18;69.79
48053;BME280;33824;51.600;5.718;2023-04-20T12:35:11;101504.28;;;11.21;69.55
48053;BME280;33824;51.600;5.718;2023-04-20T12:37:36;101516.28;;;11.25;69.33
48053;BME280;33824;51.600;5.718;2023-04-20T12:40:02;101511.91;;;11.16;68.57
48053;BME280;33824;51.600;5.718;2023-04-20T12:42:30;101497.91;;;11.80;67.49
48053;BME280;33824;51.600;5.718;2023-04-20T12:44:56;101490.53;;;12.22;65.53
48053;BME280;33824;51.600;5.718;2023-04-20T12:47:21;101494.16;;;12.54;65.75
48053;BME280;33824;51.600;5.718;2023-04-20T12:49:47;101500.03;;;12.33;65.31
48053;BME280;33824;51.600;5.718;2023-04-20T12:52:12;101487.22;;;11.88;64.31
48053;BME280;33824;51.600;5.718;2023-04-20T12:54:38;101498.19;;;11.52;65.44
48053;BME280;33824;51.600;5.718;2023-04-20T12:57:03;101510.31;;;11.39;65.43
48053;BME280;33824;51.600;5.718;2023-04-20T12:59:29;101501.75;;;11.19;65.57